Garden Plain, Kansas
Current Conditions -  °F | °C
As of 1:53 AM on Friday 28 Nov 2014 (Local Time) from KICT Reporting Station
Few Clouds Few Clouds  
Wind Chill: -2°   Ceiling: Unl
Heat Index:   Visibility: 10mi
Dew Point: -5°   Wind: 14mph
Humidity: 57%   Direction: 180°S
Pressure: 30.1"   Gusts: NA
Location:  37.66°N, 97.68°W
Report Text: KICT 280753Z 18012KT 10SM FEW250 03/M05 A3010 RMK AO2 SLP199 T00281050
Loading
Personal Weather Stations






























Interactive Weather Map New forecast layout! Learn more

10-Day Weather Forecast

Advertisements
Track Severe Weather on mobile